M I D A S
Marine Information and Data Acquisition System
Tripno 2268 of the Zeeleeuw from 2012-02-17 07:27:53 to 2012-02-17 15:06:24
Back to CruiseResearch ActivitiesStationsMapUnderway DataData graphs

EquipmentUnitsComment
TimeDGPSUTC
LatitudeDGPSDM.mWGS84
LongitudeDGPSDM.mWGS84
HeadingGyrodeg 
SOGDGPSknotsSpeed over ground
COGDGPSdegCourse over ground
DepthEcho soundermeters200 kHz
Missing or incorrect values are displayed as -999
Navigation data collected by the RV Zeeleeuw from 2012-02-17 07:02:22 to 2012-02-17 16:13:58
Time Latitude Longitude Heading SOG COG Depth
2012-02-17 07:03:27 51°13.636 2°56.019 125.9 0.1 178 -999
2012-02-17 07:04:27 51°13.635 2°56.019 125.9 0.3 195 -999
2012-02-17 07:05:27 51°13.637 2°56.019 125.2 0.1 37 10.5
2012-02-17 07:06:28 51°13.636 2°56.019 125.3 0.3 198 -999
2012-02-17 07:07:27 51°13.637 2°56.018 125.5 0.1 181 -999
2012-02-17 07:08:28 51°13.637 2°56.019 126.3 0.1 346 -999
2012-02-17 07:09:27 51°13.637 2°56.019 126.1 0.1 18 -999
2012-02-17 07:10:27 51°13.637 2°56.019 126.2 0.1 238 -999
2012-02-17 07:11:28 51°13.636 2°56.019 126.2 0.1 84 -999
2012-02-17 07:12:28 51°13.636 2°56.019 125.7 0.1 325 -999
2012-02-17 07:13:27 51°13.635 2°56.019 126 -999 246 -999
2012-02-17 07:14:28 51°13.635 2°56.019 126.1 -999 42 -999
2012-02-17 07:15:28 51°13.636 2°56.019 125.2 0.1 229 -999
2012-02-17 07:16:27 51°13.638 2°56.019 126.8 0.1 335 -999
2012-02-17 07:17:28 51°13.637 2°56.019 126.1 -999 202 -999
2012-02-17 07:18:27 51°13.636 2°56.019 122.1 0.1 177 -999
2012-02-17 07:19:28 51°13.635 2°56.019 118.9 0.1 163 -999
2012-02-17 07:20:27 51°13.64 2°55.999 112.9 2.5 295 -999
2012-02-17 07:21:28 51°13.663 2°55.905 113.3 4.1 292 -999
2012-02-17 07:22:27 51°13.694 2°55.809 116.2 4.2 296 -999
2012-02-17 07:23:27 51°13.708 2°55.788 70.7 0.8 62 4.8
2012-02-17 07:24:28 51°13.696 2°55.761 49.6 0.7 228 -999
2012-02-17 07:25:27 51°13.712 2°55.771 359.6 0.4 141 -999
2012-02-17 07:26:27 51°13.743 2°55.742 318 4.8 316 -999
2012-02-17 07:27:27 51°13.81 2°55.651 325.3 6.9 328 -999
2012-02-17 07:28:27 51°13.941 2°55.55 339.5 9.6 339 13
2012-02-17 07:29:28 51°14.094 2°55.449 336.1 9.9 335 -999
2012-02-17 07:30:27 51°14.236 2°55.325 328.4 9.9 328 -999
2012-02-17 07:31:28 51°14.378 2°55.184 330.3 9.8 329 -999
2012-02-17 07:32:28 51°14.527 2°55.043 327.7 11.8 329 13.4
2012-02-17 07:33:27 51°14.709 2°54.908 327.1 12.4 342 14.1
2012-02-17 07:34:25 51°14.914 2°54.874 355.7 13.2 2 12.4
2012-02-17 07:35:25 51°15.13 2°54.961 16.8 13.6 21 11.6
2012-02-17 07:36:24 51°15.333 2°55.111 24.2 13.7 26 11.1
2012-02-17 07:37:24 51°15.528 2°55.303 37.6 13.9 40 10.8
2012-02-17 07:38:24 51°15.693 2°55.562 43.4 13.8 42 11.8
2012-02-17 07:39:24 51°15.849 2°55.833 50.4 13.9 52 11.9
2012-02-17 07:40:24 51°15.991 2°56.128 53.9 13.8 55 12.1
2012-02-17 07:41:24 51°16.126 2°56.43 54.4 13.8 54 12
2012-02-17 07:42:24 51°16.248 2°56.741 62.4 14 62 12
2012-02-17 07:43:24 51°16.335 2°57.084 71.9 14 69 11.8
2012-02-17 07:44:24 51°16.423 2°57.431 67 14.2 65 11.8
2012-02-17 07:45:24 51°16.515 2°57.774 67.1 14.1 65 12
2012-02-17 07:46:25 51°16.639 2°58.097 51.8 14.1 51 11.8
2012-02-17 07:47:24 51°16.777 2°58.389 53.7 14.2 55 12.3
2012-02-17 07:48:24 51°16.92 2°58.688 52.2 14.4 55 12.4
2012-02-17 07:49:24 51°17.058 2°58.995 54.8 14.4 55 12
2012-02-17 07:50:24 51°17.188 2°59.31 56.4 14.2 54 12
2012-02-17 07:51:24 51°17.326 2°59.617 52.3 14.2 52 11.9
2012-02-17 07:52:24 51°17.463 2°59.925 57.8 14.3 58 12.1
2012-02-17 07:53:23 51°17.587 3°0.238 56.7 14.2 58 12.2
2012-02-17 07:54:24 51°17.726 3°0.553 56.4 14.3 56 11.8
2012-02-17 07:55:24 51°17.857 3°0.874 57.6 14.5 55 11.9
2012-02-17 07:56:25 51°18.002 3°1.185 53.1 14.3 53 11.6
2012-02-17 07:57:24 51°18.138 3°1.495 54.2 14.6 51 11.4
2012-02-17 07:58:24 51°18.286 3°1.8 54.9 14.6 54 11.6
2012-02-17 07:59:24 51°18.429 3°2.112 56.2 14.6 56 11
2012-02-17 08:00:24 51°18.562 3°2.432 54.8 14.5 51 10.9
2012-02-17 08:01:24 51°18.702 3°2.742 53.3 14.3 54 10.8
2012-02-17 08:02:24 51°18.842 3°3.048 59.3 14.1 56 10.2
2012-02-17 08:03:24 51°18.972 3°3.356 57.1 13.9 53 10.4
2012-02-17 08:04:25 51°19.121 3°3.646 51.6 13.8 51 10.5
2012-02-17 08:05:24 51°19.25 3°3.939 58.5 13.8 56 10.8
2012-02-17 08:06:23 51°19.39 3°4.221 54.2 14 55 10.8
2012-02-17 08:07:23 51°19.516 3°4.536 62.7 14.1 60 10.5
2012-02-17 08:08:23 51°19.631 3°4.871 61 14.5 60 10.5
2012-02-17 08:09:23 51°19.756 3°5.199 60.6 14.5 61 11
2012-02-17 08:10:23 51°19.881 3°5.522 57.9 14.2 53 10.5
2012-02-17 08:11:23 51°20.015 3°5.832 60.6 14.1 59 10.4
2012-02-17 08:12:23 51°20.132 3°6.156 61.9 14.1 59 10.5
2012-02-17 08:13:23 51°20.258 3°6.469 57.7 14.1 54 10.7
2012-02-17 08:14:23 51°20.391 3°6.774 61.6 14.1 60 10.6
2012-02-17 08:15:23 51°20.512 3°7.099 61.1 14.2 61 10.6
2012-02-17 08:16:23 51°20.631 3°7.428 68.9 14.2 65 10.5
2012-02-17 08:17:23 51°20.739 3°7.77 65.9 14.4 62 10.3
2012-02-17 08:18:23 51°20.851 3°8.11 65 14.5 62 11
2012-02-17 08:19:23 51°20.968 3°8.441 66 13.7 61 11
2012-02-17 08:20:23 51°21.046 3°8.677 62 7.4 54 11.4
2012-02-17 08:21:23 51°21.115 3°8.761 10.3 4.3 23 11.8
2012-02-17 08:22:23 51°21.174 3°8.8 355.6 3.4 18 11.7
2012-02-17 08:23:23 51°21.218 3°8.819 323.8 2.4 7 12.2
2012-02-17 08:24:23 51°21.252 3°8.824 295.8 1.8 350 12.2
2012-02-17 08:25:23 51°21.283 3°8.715 286.4 8.1 294 11.3
2012-02-17 08:26:23 51°21.381 3°8.492 306.4 11.6 311 11.5
2012-02-17 08:27:23 51°21.507 3°8.252 304.9 11.8 308 12
2012-02-17 08:28:23 51°21.604 3°7.989 291.1 11.5 292 12.9
2012-02-17 08:29:23 51°21.671 3°7.706 285.8 11.3 287 13.1
2012-02-17 08:30:23 51°21.721 3°7.415 285.9 11.4 288 13.7
2012-02-17 08:31:23 51°21.786 3°7.136 284.1 10.8 286 14
2012-02-17 08:32:23 51°21.81 3°6.853 271.5 10.6 274 14.1
2012-02-17 08:33:23 51°21.817 3°6.567 271 11 273 13.7
2012-02-17 08:34:23 51°21.833 3°6.279 277.6 10.9 279 13.6
2012-02-17 08:35:23 51°21.866 3°5.992 279.3 11.2 280 13.8
2012-02-17 08:36:23 51°21.893 3°5.7 274.6 11.1 274 14.1
2012-02-17 08:37:23 51°21.904 3°5.409 272.3 10.9 274 14.3
2012-02-17 08:38:23 51°21.923 3°5.121 277.7 11 280 14.4
2012-02-17 08:39:23 51°21.954 3°4.833 275.5 10.9 277 14.6
2012-02-17 08:40:23 51°21.967 3°4.543 271.9 10.9 274 14.4
2012-02-17 08:41:23 51°21.989 3°4.255 281.2 11.2 282 14.7
2012-02-17 08:42:23 51°22.034 3°3.969 281.4 11.1 284 14.4
2012-02-17 08:43:23 51°22.069 3°3.681 275.3 11 277 14.5
2012-02-17 08:44:23 51°22.091 3°3.391 278.1 11.1 280 14.5
2012-02-17 08:45:23 51°22.132 3°3.101 281.8 11.2 281 14.5
2012-02-17 08:46:23 51°22.16 3°2.808 274.9 11.1 275 14.2
2012-02-17 08:47:23 51°22.186 3°2.516 280.1 11.2 280 14.3
2012-02-17 08:48:23 51°22.227 3°2.227 281 11.1 282 14.2
2012-02-17 08:49:23 51°22.25 3°1.937 275.8 11 278 13.9
2012-02-17 08:50:23 51°22.283 3°1.647 281.3 11.1 282 13.8
2012-02-17 08:51:23 51°22.314 3°1.36 274.5 10.9 276 13.6
2012-02-17 08:52:23 51°22.335 3°1.07 278.1 11 281 13.1
2012-02-17 08:53:24 51°22.381 3°0.777 282.4 11.1 285 13.9
2012-02-17 08:54:23 51°22.42 3°0.495 277.7 11 278 14.4
2012-02-17 08:55:23 51°22.447 3°0.205 277.6 11.1 282 14.6
2012-02-17 08:56:23 51°22.486 2°59.916 278.4 11.1 280 15.7
2012-02-17 08:57:23 51°22.514 2°59.626 278.5 11.1 282 16.7
2012-02-17 08:58:23 51°22.553 2°59.338 276.9 11 280 17.2
2012-02-17 08:59:23 51°22.583 2°59.049 279.5 11.1 283 18.4
2012-02-17 09:00:24 51°22.621 2°58.757 275.2 11 279 19.3
2012-02-17 09:01:23 51°22.656 2°58.472 279.1 11.1 284 19.8
2012-02-17 09:02:23 51°22.706 2°58.186 281.3 11.3 285 20.1
2012-02-17 09:03:23 51°22.74 2°57.895 276.3 11.2 279 20.4
2012-02-17 09:04:23 51°22.765 2°57.6 276 11.3 278 20.6
2012-02-17 09:05:23 51°22.813 2°57.307 286.3 11.5 291 21.2
2012-02-17 09:06:23 51°22.921 2°57.051 309.2 11.7 312 20.6
2012-02-17 09:07:24 51°23.061 2°56.821 308.2 11.9 313 20.4
2012-02-17 09:08:23 51°23.184 2°56.584 302 11.6 303 20.9
2012-02-17 09:09:24 51°23.254 2°56.302 277.9 11.2 280 21.4
2012-02-17 09:10:23 51°23.282 2°56.011 276.8 11.3 280 22.4
2012-02-17 09:11:23 51°23.319 2°55.718 282 11.4 285 21.4
2012-02-17 09:12:23 51°23.368 2°55.429 281.4 11.4 285 21.2
2012-02-17 09:13:23 51°23.407 2°55.138 273.8 11.1 276 20.6
2012-02-17 09:14:23 51°23.426 2°54.843 274.2 11.1 277 22.1
2012-02-17 09:15:23 51°23.457 2°54.549 275.6 11.1 279 22.1
2012-02-17 09:16:23 51°23.475 2°54.253 273.6 11.2 278 22.2
2012-02-17 09:17:23 51°23.515 2°53.96 278.3 11.3 283 23.1
2012-02-17 09:18:24 51°23.541 2°53.664 271.1 11 277 22
2012-02-17 09:19:23 51°23.574 2°53.375 274.6 11.1 278 23.1
2012-02-17 09:20:23 51°23.586 2°53.082 267.9 11.1 271 24.6
2012-02-17 09:21:23 51°23.591 2°52.789 269.2 11.1 273 23.2
2012-02-17 09:22:23 51°23.612 2°52.497 272.8 11 278 20.8
2012-02-17 09:23:23 51°23.623 2°52.204 266.9 10.8 269 18.2
2012-02-17 09:24:23 51°23.631 2°51.912 271.3 11 275 16.8
2012-02-17 09:25:23 51°23.641 2°51.619 268.7 11.1 272 18.4
2012-02-17 09:26:23 51°23.653 2°51.326 270.1 11 273 19.6
2012-02-17 09:27:23 51°23.664 2°51.034 271.5 11 276 21
2012-02-17 09:28:23 51°23.67 2°50.745 265.9 10.8 269 19.1
2012-02-17 09:29:23 51°23.683 2°50.457 272.9 10.8 277 22.8
2012-02-17 09:30:23 51°23.708 2°50.168 271.4 10.9 275 24.3
2012-02-17 09:31:23 51°23.713 2°49.88 269.9 10.8 274 25.4
2012-02-17 09:32:23 51°23.735 2°49.594 272.3 10.9 278 25.2
2012-02-17 09:33:23 51°23.746 2°49.308 267.9 10.8 271 25.2
2012-02-17 09:34:23 51°23.732 2°49.026 257.5 10.6 259 25.6
2012-02-17 09:35:23 51°23.702 2°48.746 258.3 10.8 262 24.3
2012-02-17 09:36:23 51°23.69 2°48.459 262.3 10.7 266 24.4
2012-02-17 09:37:23 51°23.66 2°48.177 257.9 10.8 259 24.8
2012-02-17 09:38:23 51°23.646 2°47.888 263 10.9 267 19.5
2012-02-17 09:39:23 51°23.633 2°47.599 261.5 11 265 24.1
2012-02-17 09:40:23 51°23.607 2°47.313 258 10.8 264 22.1
2012-02-17 09:41:23 51°23.587 2°47.025 259.5 10.8 263 26.5
2012-02-17 09:42:23 51°23.559 2°46.738 257.3 10.9 261 28.3
2012-02-17 09:43:23 51°23.553 2°46.445 269.1 11.1 274 29
2012-02-17 09:44:23 51°23.561 2°46.144 268.4 11.4 272 29.3
2012-02-17 09:45:23 51°23.557 2°45.848 262.1 11 264 29.7
2012-02-17 09:46:23 51°23.544 2°45.552 266.6 11.3 269 29.6
2012-02-17 09:47:23 51°23.545 2°45.26 266.3 10.9 270 29.8
2012-02-17 09:48:23 51°23.534 2°44.97 262.7 10.9 264 30.1
2012-02-17 09:49:23 51°23.527 2°44.679 265.3 11 267 29.5
2012-02-17 09:50:24 51°23.513 2°44.385 264.9 10.9 268 30.1
2012-02-17 09:51:23 51°23.524 2°44.097 270.8 11.1 274 28.9
2012-02-17 09:52:24 51°23.524 2°43.8 265 11.2 267 28.5
2012-02-17 09:53:23 51°23.51 2°43.515 261.3 11 264 30
2012-02-17 09:54:23 51°23.512 2°43.222 269.5 11.1 273 27.6
2012-02-17 09:55:24 51°23.513 2°42.922 264.3 11 266 29.8
2012-02-17 09:56:23 51°23.499 2°42.632 263.8 11.2 269 25.6
2012-02-17 09:57:24 51°23.498 2°42.329 266.5 11.3 271 27.9
2012-02-17 09:58:23 51°23.499 2°42.034 266.1 11.2 268 28.2
2012-02-17 09:59:24 51°23.49 2°41.731 264.1 11.2 269 30.5
2012-02-17 10:00:23 51°23.484 2°41.439 264.4 11.1 269 32
2012-02-17 10:01:24 51°23.48 2°41.138 268.6 11.2 271 32.8
2012-02-17 10:02:23 51°23.496 2°40.849 269.3 11 271 30.8
2012-02-17 10:03:23 51°23.493 2°40.561 268 10.9 273 31.9
2012-02-17 10:04:23 51°23.514 2°40.273 273.1 10.9 277 31.7
2012-02-17 10:05:23 51°23.52 2°39.984 267.4 10.9 269 31.9
2012-02-17 10:06:24 51°23.531 2°39.69 268.6 10.9 272 28.2
2012-02-17 10:07:24 51°23.548 2°39.401 273.6 10.9 279 29.2
2012-02-17 10:08:24 51°23.558 2°39.112 266.2 10.9 269 30
2012-02-17 10:09:24 51°23.551 2°38.823 267.9 10.8 271 29.3
2012-02-17 10:10:24 51°23.555 2°38.532 268.9 11 273 28.4
2012-02-17 10:11:23 51°23.568 2°38.246 268.5 10.9 272 27.9
2012-02-17 10:12:24 51°23.563 2°37.952 264.3 11 268 28.5
2012-02-17 10:13:24 51°23.574 2°37.661 270.5 11 275 27.6
2012-02-17 10:14:24 51°23.576 2°37.37 263.7 11 270 25.8
2012-02-17 10:15:24 51°23.577 2°37.076 264.8 11.1 270 24.9
2012-02-17 10:16:23 51°23.575 2°36.784 269.5 11.3 275 24.3
2012-02-17 10:17:24 51°23.588 2°36.475 269.4 11.4 271 29.4
2012-02-17 10:18:24 51°23.582 2°36.173 264.1 11.3 267 29.7
2012-02-17 10:19:24 51°23.587 2°35.877 271.1 11 272 32.6
2012-02-17 10:20:24 51°23.598 2°35.583 269.1 11 273 34.8
2012-02-17 10:21:24 51°23.591 2°35.291 265.7 10.8 265 34
2012-02-17 10:22:24 51°23.586 2°35.002 264 10.9 268 33.5
2012-02-17 10:23:23 51°23.589 2°34.713 269.1 11.1 271 37.2
2012-02-17 10:24:24 51°23.599 2°34.411 270.1 11.3 273 34.1
2012-02-17 10:25:23 51°23.599 2°34.117 263.7 11.2 266 34.5
2012-02-17 10:26:24 51°23.542 2°33.837 241.5 10.9 241 33.6
2012-02-17 10:27:23 51°23.462 2°33.578 250 11.1 252 33.6
2012-02-17 10:28:23 51°23.433 2°33.286 263.9 11.4 266 33.1
2012-02-17 10:29:24 51°23.42 2°32.983 268.3 11.2 271 32.2
2012-02-17 10:30:23 51°23.452 2°32.691 280.6 11.4 284 33.5
2012-02-17 10:31:24 51°23.489 2°32.391 274.3 11.1 278 32.4
2012-02-17 10:32:23 51°23.512 2°32.1 275.3 11.3 279 25.5
2012-02-17 10:33:24 51°23.538 2°31.799 277.2 11.2 280 22.6
2012-02-17 10:34:24 51°23.567 2°31.504 275.6 11.3 277 23.7
2012-02-17 10:35:24 51°23.589 2°31.208 276.5 11.3 278 31.3
2012-02-17 10:36:24 51°23.621 2°30.911 277 11.3 280 31.9
2012-02-17 10:37:24 51°23.649 2°30.612 274.1 11.3 277 35.6
2012-02-17 10:38:24 51°23.669 2°30.37 276.7 6.7 283 35.6
2012-02-17 10:39:24 51°23.694 2°30.233 273.3 4.6 282 34.9
2012-02-17 10:40:24 51°23.683 2°30.099 250.8 7.7 251 35
2012-02-17 10:41:23 51°23.657 2°29.869 261.4 8.4 270 35
2012-02-17 10:42:24 51°23.695 2°29.753 302 3.7 324 34.5
2012-02-17 10:43:23 51°23.726 2°29.749 324 1.5 72 34.9
2012-02-17 10:44:27 51°23.738 2°29.79 341.4 1.6 64 34.9
2012-02-17 10:45:25 51°23.748 2°29.827 348.5 1.6 65 35.3
2012-02-17 10:46:24 51°23.758 2°29.864 356 1.6 66 35.3
2012-02-17 10:47:24 51°23.77 2°29.901 5.5 1.5 66 35.2
2012-02-17 10:48:23 51°23.778 2°29.936 14.5 1.2 89 34.9
2012-02-17 10:49:25 51°23.767 2°29.961 21.3 1.4 153 -999
2012-02-17 10:50:27 51°23.738 2°29.964 32.3 1.8 194 -999
2012-02-17 10:51:27 51°23.709 2°29.945 45.1 1.8 221 -999
2012-02-17 10:52:27 51°23.707 2°29.952 41.3 2.5 45 34.3
2012-02-17 10:53:26 51°23.759 2°29.973 330.8 3.4 344 35.4
2012-02-17 10:54:24 51°23.783 2°29.919 249.1 2.4 252 34.6
2012-02-17 10:55:23 51°23.743 2°29.873 225.6 3.7 227 34.9
2012-02-17 10:56:23 51°23.722 2°29.79 251.3 2.6 267 35.4
2012-02-17 10:57:24 51°23.736 2°29.75 291 1.1 14 35
2012-02-17 10:58:27 51°23.738 2°29.799 310.7 1.7 88 -999
2012-02-17 10:59:26 51°23.742 2°29.847 313.2 1.8 83 35.3
2012-02-17 11:00:24 51°23.748 2°29.892 322 1.7 75 35.3
2012-02-17 11:01:23 51°23.755 2°29.934 334.1 1.7 58 35.5
2012-02-17 11:02:23 51°23.777 2°29.955 313.9 2 352 34.4
2012-02-17 11:03:24 51°23.788 2°29.912 236 2.2 236 35.1
2012-02-17 11:04:23 51°23.741 2°29.879 218.7 2.8 214 34.7
2012-02-17 11:05:24 51°23.73 2°29.823 262.8 2.1 280 35.2
2012-02-17 11:06:23 51°23.735 2°29.787 259.6 0.4 335 34.7
2012-02-17 11:07:23 51°23.746 2°29.801 271.8 1.3 60 34.2
2012-02-17 11:08:26 51°23.757 2°29.836 275.9 1.8 73 34.9
2012-02-17 11:09:27 51°23.766 2°29.91 279.8 2.8 81 -999
2012-02-17 11:10:25 51°23.774 2°29.976 282.6 2.5 76 34.8
2012-02-17 11:11:23 51°23.782 2°30.035 294.1 2.2 76 34.7
2012-02-17 11:12:23 51°23.796 2°30.062 280.6 1 352 34.9
2012-02-17 11:13:24 51°23.805 2°30.03 256.3 2.3 268 35.1
2012-02-17 11:14:23 51°23.795 2°29.961 244 2.1 249 34.7
2012-02-17 11:15:23 51°23.781 2°29.927 228.8 1.4 221 34.3
2012-02-17 11:16:23 51°23.774 2°29.911 240.3 0.5 247 34.6
2012-02-17 11:17:23 51°23.775 2°29.908 243 0.2 58 34.7
2012-02-17 11:18:23 51°23.778 2°29.913 240.3 0.5 38 34.5
2012-02-17 11:19:23 51°23.778 2°29.918 228.8 0.6 213 34.2
2012-02-17 11:20:23 51°23.758 2°29.918 207.7 1.1 177 34.9
2012-02-17 11:21:23 51°23.743 2°29.929 204.9 0.8 142 34.7
2012-02-17 11:22:24 51°23.736 2°29.946 202.8 0.7 110 34.5
2012-02-17 11:23:24 51°23.735 2°29.972 204 1.1 80 34.4
2012-02-17 11:24:23 51°23.742 2°30.001 202.4 1.3 67 34.6
2012-02-17 11:25:24 51°23.752 2°30.035 187.5 1.3 63 34.4
2012-02-17 11:26:24 51°23.762 2°30.07 170.7 1.4 60 34.1
2012-02-17 11:27:23 51°23.773 2°30.104 157.2 1.4 64 34.7
2012-02-17 11:28:24 51°23.784 2°30.139 148.2 1.5 64 34.5
2012-02-17 11:29:23 51°23.79 2°30.175 152.8 1.5 84 34.7
2012-02-17 11:30:24 51°23.785 2°30.211 180.2 1.4 113 34.3
2012-02-17 11:31:23 51°23.775 2°30.231 206.8 0.9 140 34.1
2012-02-17 11:32:24 51°23.767 2°30.227 244 0.8 271 34
2012-02-17 11:33:23 51°23.765 2°30.189 255.7 1.9 269 34.2
2012-02-17 11:34:23 51°23.755 2°30.13 245.1 2.4 245 34.4
2012-02-17 11:35:24 51°23.741 2°30.076 246.1 0.4 260 34.6
2012-02-17 11:36:23 51°23.743 2°30.072 250.4 0.3 357 34.4
2012-02-17 11:37:24 51°23.749 2°30.076 257 0.5 34 34.4
2012-02-17 11:38:23 51°23.76 2°30.085 271.7 0.9 27 34.2
2012-02-17 11:39:23 51°23.772 2°30.1 296.2 1 40 34.4
2012-02-17 11:40:24 51°23.787 2°30.118 311.9 1.2 35 33.8
2012-02-17 11:41:23 51°23.806 2°30.126 307.8 1.2 7 33.8
2012-02-17 11:42:24 51°23.826 2°30.126 287.5 0.9 351 34.2
2012-02-17 11:43:23 51°23.841 2°30.12 265 0.7 341 34.6
2012-02-17 11:44:23 51°23.847 2°30.115 237.7 0.2 319 34.3
2012-02-17 11:45:23 51°23.846 2°30.112 224.4 0.4 194 34.3
2012-02-17 11:46:23 51°23.839 2°30.107 229.4 0.5 215 34.2
2012-02-17 11:47:24 51°23.835 2°30.095 244.2 0.3 245 34.2
2012-02-17 11:48:23 51°23.838 2°30.09 250.2 0.4 4 34.2
2012-02-17 11:49:23 51°23.848 2°30.108 252.7 1.4 50 34
2012-02-17 11:50:23 51°23.861 2°30.147 256.1 2 63 34.6
2012-02-17 11:51:24 51°23.874 2°30.198 269.3 1.9 67 34.6
2012-02-17 11:52:24 51°23.884 2°30.244 287.2 1.7 79 34.5
2012-02-17 11:53:24 51°23.892 2°30.284 310.3 1.3 74 34.3
2012-02-17 11:54:24 51°23.906 2°30.301 307.5 1.1 356 34.1
2012-02-17 11:55:24 51°23.925 2°30.284 274.6 1.2 303 33.9
2012-02-17 11:56:24 51°23.925 2°30.258 231.2 0.7 238 34.4
2012-02-17 11:57:24 51°23.921 2°30.254 220.8 0.2 136 34.5
2012-02-17 11:58:24 51°23.919 2°30.262 216.7 0.5 93 34.3
2012-02-17 11:59:24 51°23.897 2°30.249 218.2 4.1 218 34.2
2012-02-17 12:00:24 51°23.818 2°30.124 224 8.4 224 33.9
2012-02-17 12:01:24 51°23.759 2°30.003 239.5 3 239 34.2
2012-02-17 12:02:24 51°23.735 2°29.966 222.9 1.4 221 34
2012-02-17 12:03:24 51°23.72 2°29.955 215.5 0.9 178 34.5
2012-02-17 12:04:24 51°23.712 2°29.958 207.9 0.5 140 34.4
2012-02-17 12:05:23 51°23.71 2°29.97 202.9 0.6 92 34.1
2012-02-17 12:06:24 51°23.71 2°29.986 200 0.8 83 34.1
2012-02-17 12:07:23 51°23.713 2°30.005 195.5 0.9 77 33.9
2012-02-17 12:08:23 51°23.719 2°30.027 187.3 1 67 34
2012-02-17 12:09:23 51°23.728 2°30.051 173.7 1.1 57 33.8
2012-02-17 12:10:23 51°23.736 2°30.074 159.6 1 55 34.2
2012-02-17 12:11:23 51°23.746 2°30.097 151.5 1 53 34.3
2012-02-17 12:12:24 51°23.755 2°30.119 146.4 1.1 56 33.7
2012-02-17 12:13:23 51°23.765 2°30.141 144.7 1.1 54 34.1
2012-02-17 12:14:23 51°23.774 2°30.162 144.5 1 57 34.3
2012-02-17 12:15:24 51°23.784 2°30.184 147.1 1 57 34
2012-02-17 12:16:23 51°23.793 2°30.205 150.5 0.9 57 34.3
2012-02-17 12:17:24 51°23.802 2°30.227 153.5 0.9 58 34
2012-02-17 12:18:24 51°23.81 2°30.248 157.1 0.9 64 34
2012-02-17 12:19:23 51°23.815 2°30.27 163.4 0.9 79 34.1
2012-02-17 12:20:23 51°23.813 2°30.291 179.8 0.8 118 34.1
2012-02-17 12:21:24 51°23.802 2°30.303 202.2 0.7 171 33.9
2012-02-17 12:22:23 51°23.791 2°30.303 224.2 0.7 196 33.9
2012-02-17 12:23:24 51°23.786 2°30.289 254.2 0.7 273 33.8
2012-02-17 12:24:24 51°23.792 2°30.264 276.6 1.3 307 33.9
2012-02-17 12:25:24 51°23.804 2°30.233 275.7 1.4 301 34.1
2012-02-17 12:26:24 51°23.813 2°30.195 264.7 1.5 280 34.1
2012-02-17 12:27:24 51°23.815 2°30.156 255.9 1.5 274 33.6
2012-02-17 12:28:23 51°23.816 2°30.115 262.6 1.7 278 34
2012-02-17 12:29:24 51°23.818 2°30.07 259.9 1.6 270 33.9
2012-02-17 12:30:24 51°23.816 2°30.026 246.8 1.6 258 34
2012-02-17 12:31:24 51°23.808 2°29.991 237.1 1.1 243 33.8
2012-02-17 12:32:24 51°23.801 2°29.975 230.9 0.5 220 33.8
2012-02-17 12:33:24 51°23.799 2°29.973 225.1 0.1 95 33.8
2012-02-17 12:34:24 51°23.799 2°29.982 217.5 0.5 92 33.8
2012-02-17 12:35:24 51°23.799 2°29.994 208 0.6 193 33.4
2012-02-17 12:36:24 51°23.751 2°29.936 217.8 6.8 219 34.7
2012-02-17 12:37:23 51°23.706 2°29.842 244.9 3.3 248 34.2
2012-02-17 12:38:24 51°23.702 2°29.776 274.3 2.1 282 33.6
2012-02-17 12:39:24 51°23.718 2°29.743 304.9 1.4 331 33.6
2012-02-17 12:40:24 51°23.742 2°29.723 321.7 2 337 33.7
2012-02-17 12:41:24 51°23.778 2°29.694 319.6 2.8 329 34
2012-02-17 12:42:24 51°23.814 2°29.655 314.2 2.2 323 34.2
2012-02-17 12:43:23 51°23.841 2°29.629 311.6 1.7 329 34
2012-02-17 12:44:23 51°23.861 2°29.613 310.9 1.4 336 34
2012-02-17 12:45:24 51°23.884 2°29.591 307.3 2 321 34.1
2012-02-17 12:46:24 51°23.915 2°29.542 302.8 3.1 313 33.9
2012-02-17 12:47:24 51°23.951 2°29.478 318.2 4 324 33.5
2012-02-17 12:48:24 51°24.021 2°29.522 64.5 5.2 67 34.1
2012-02-17 12:49:24 51°23.977 2°29.618 167.1 5.4 170 33.8
2012-02-17 12:50:24 51°23.863 2°29.716 136.4 9.4 133 34.1
2012-02-17 12:51:24 51°23.777 2°29.918 127.6 7.2 131 33.4
2012-02-17 12:52:24 51°23.701 2°29.943 203.2 3.9 209 33.3
2012-02-17 12:53:24 51°23.67 2°29.851 254.8 5.4 256 33.5
2012-02-17 12:54:24 51°23.637 2°29.686 252.6 5.5 252 33.7
2012-02-17 12:55:24 51°23.639 2°29.588 280.4 2.7 285 34.4
2012-02-17 12:56:24 51°23.651 2°29.555 304.4 0.6 330 33.3
2012-02-17 12:57:24 51°23.659 2°29.556 332.2 0.5 17 33.7
2012-02-17 12:58:23 51°23.667 2°29.561 346.7 0.5 37 33.9
2012-02-17 12:59:24 51°23.675 2°29.569 349.7 0.5 48 34.1
2012-02-17 13:00:24 51°23.679 2°29.577 351.3 0.4 50 34.1
2012-02-17 13:01:24 51°23.683 2°29.586 352.8 0.4 49 33.8
2012-02-17 13:02:24 51°23.687 2°29.595 352.3 0.4 68 33.6
2012-02-17 13:03:24 51°23.69 2°29.604 349.4 0.3 69 34.3
2012-02-17 13:04:24 51°23.692 2°29.613 349.2 0.4 74 34
2012-02-17 13:05:24 51°23.687 2°29.624 357.9 0.4 117 34.2
2012-02-17 13:06:24 51°23.7 2°29.634 25.8 1.4 24 34.2
2012-02-17 13:07:24 51°23.722 2°29.666 60.9 2.1 55 34.3
2012-02-17 13:08:24 51°23.731 2°29.712 93.5 1.6 82 33.9
2012-02-17 13:09:23 51°23.731 2°29.744 106.6 1 87 33.5
2012-02-17 13:10:24 51°23.729 2°29.767 119.2 0.6 100 33.5
2012-02-17 13:11:24 51°23.728 2°29.782 130.7 0.6 92 29.1
2012-02-17 13:12:24 51°23.729 2°29.79 142.7 0.2 41 28.7
2012-02-17 13:13:24 51°23.732 2°29.796 146.4 0.3 40 30.3
2012-02-17 13:14:24 51°23.735 2°29.803 148.7 0.3 45 30.2
2012-02-17 13:15:23 51°23.738 2°29.81 150.3 0.4 52 29.1
2012-02-17 13:16:23 51°23.741 2°29.817 151.9 0.3 92 29.3
2012-02-17 13:17:24 51°23.747 2°29.826 150.3 0.5 49 33.7
2012-02-17 13:18:24 51°23.736 2°29.867 108.8 3.1 104 33.3
2012-02-17 13:19:24 51°23.74 2°30.046 92 10.8 92 33.4
2012-02-17 13:20:24 51°23.721 2°30.366 97.7 12.4 100 33.5
2012-02-17 13:21:24 51°23.678 2°30.69 101.7 12.7 101 33.6
2012-02-17 13:22:24 51°23.654 2°31.018 95.9 12.3 97 33.1
2012-02-17 13:23:24 51°23.638 2°31.344 91.3 12.2 89 26.4
2012-02-17 13:24:24 51°23.633 2°31.668 89 12.2 88 21
2012-02-17 13:25:24 51°23.626 2°31.991 95.5 12.2 96 22.2
2012-02-17 13:26:24 51°23.61 2°32.32 93.8 12.5 92 25.2
2012-02-17 13:27:24 51°23.616 2°32.651 87.6 12.4 87 31.3
2012-02-17 13:28:23 51°23.633 2°32.976 88.3 12.4 88 31.2
2012-02-17 13:29:24 51°23.624 2°33.314 92 12.6 91 31.2
2012-02-17 13:30:24 51°23.635 2°33.647 84.8 12.5 86 31.3
2012-02-17 13:31:24 51°23.645 2°33.975 92.1 12.2 92 31.6
2012-02-17 13:32:24 51°23.645 2°34.298 87.2 12.1 87 32.8
2012-02-17 13:33:24 51°23.654 2°34.621 92 12.2 91 34.4
2012-02-17 13:34:23 51°23.646 2°34.941 91.8 12.2 90 33
2012-02-17 13:35:24 51°23.659 2°35.272 86 12.2 86 32.7
2012-02-17 13:36:24 51°23.667 2°35.601 88.5 12.5 85 32.1
2012-02-17 13:37:24 51°23.665 2°35.931 93 12.5 92 30.2
2012-02-17 13:38:24 51°23.663 2°36.263 88.4 12.3 87 30.3
2012-02-17 13:39:24 51°23.676 2°36.594 85.9 12.4 85 28
2012-02-17 13:40:24 51°23.67 2°36.923 94.9 12.3 92 25.2
2012-02-17 13:41:24 51°23.66 2°37.249 90.2 12 89 24.6
2012-02-17 13:42:24 51°23.666 2°37.576 91.3 12.3 92 24.8
2012-02-17 13:43:24 51°23.666 2°37.906 87.3 12.4 88 25.4
2012-02-17 13:44:24 51°23.66 2°38.235 91.9 12.4 91 26.5
2012-02-17 13:45:24 51°23.667 2°38.564 87.5 12.5 89 26.3
2012-02-17 13:46:24 51°23.667 2°38.896 92.6 12.4 91 26.8
2012-02-17 13:47:24 51°23.66 2°39.227 91.5 12.5 91 28
2012-02-17 13:48:24 51°23.663 2°39.555 90 12.3 90 28.8
2012-02-17 13:49:24 51°23.675 2°39.881 86.4 12.3 85 29.1
2012-02-17 13:50:24 51°23.657 2°40.203 101.5 12.3 101 29.9
2012-02-17 13:51:24 51°23.604 2°40.521 104.6 12.3 104 29.6
2012-02-17 13:52:24 51°23.557 2°40.839 103.5 12.3 103 29
2012-02-17 13:53:24 51°23.567 2°41.159 79.6 12.3 80 28.7
2012-02-17 13:54:24 51°23.604 2°41.478 82.9 12.2 82 28
2012-02-17 13:55:23 51°23.63 2°41.797 86 12.4 87 27.1
2012-02-17 13:56:24 51°23.639 2°42.127 89 12.3 89 28
2012-02-17 13:57:24 51°23.655 2°42.455 81.9 12.3 81 27
2012-02-17 13:58:24 51°23.719 2°42.755 58.3 12 54 28.2
2012-02-17 13:59:24 51°23.865 2°42.968 37.1 12 31 27.9
2012-02-17 14:00:24 51°24.039 2°43.127 34.2 11.9 31 27
2012-02-17 14:01:24 51°24.211 2°43.291 35.7 12.1 30 24.6
2012-02-17 14:02:24 51°24.38 2°43.455 31.8 10.8 27 25.8
2012-02-17 14:03:24 51°24.491 2°43.508 18.6 4.7 12 23.9
2012-02-17 14:04:24 51°24.537 2°43.55 50.9 2.6 43 24.5
2012-02-17 14:05:24 51°24.574 2°43.587 27.2 2.9 15 22.3
2012-02-17 14:06:24 51°24.624 2°43.62 32.8 3.3 28 23.4
2012-02-17 14:07:24 51°24.651 2°43.667 61.2 1.9 56 22
2012-02-17 14:08:24 51°24.665 2°43.7 57.9 1.4 55 22
2012-02-17 14:09:24 51°24.672 2°43.711 61.1 0.4 34 20.3
2012-02-17 14:10:24 51°24.675 2°43.718 61.1 0.2 56 20.9
2012-02-17 14:11:24 51°24.678 2°43.724 54.7 0.3 45 21.3
2012-02-17 14:12:24 51°24.676 2°43.72 48.9 0.2 244 21.2
2012-02-17 14:13:24 51°24.676 2°43.719 39.3 0.1 337 20.8
2012-02-17 14:14:24 51°24.678 2°43.718 25.8 0.2 353 23.5
2012-02-17 14:15:24 51°24.681 2°43.716 14.7 0.2 309 23.6
2012-02-17 14:16:24 51°24.675 2°43.711 7 0.7 195 23.3
2012-02-17 14:17:24 51°24.664 2°43.706 17.5 0.6 201 22.4
2012-02-17 14:18:24 51°24.656 2°43.701 28.4 0.3 213 23.7
2012-02-17 14:19:24 51°24.658 2°43.699 19.7 0.3 343 22.8
2012-02-17 14:20:24 51°24.666 2°43.696 17.2 0.6 355 21.9
2012-02-17 14:21:24 51°24.68 2°43.699 32.7 0.4 358 23.9
2012-02-17 14:22:24 51°24.676 2°43.689 40.6 1 222 23
2012-02-17 14:23:27 51°24.666 2°43.673 64.5 0.2 114 -999
2012-02-17 14:24:26 51°24.662 2°43.69 100.3 0.6 118 20.5
2012-02-17 14:25:24 51°24.657 2°43.714 90 1.2 93 24.6
2012-02-17 14:26:24 51°24.662 2°43.737 60.9 0.3 55 23.9
2012-02-17 14:27:24 51°24.663 2°43.737 59.3 0.3 255 23.9
2012-02-17 14:28:24 51°24.661 2°43.734 56.3 0.1 192 24.1
2012-02-17 14:29:24 51°24.662 2°43.733 50.3 0.1 82 24
2012-02-17 14:30:24 51°24.664 2°43.734 41.5 0.1 6 23.9
2012-02-17 14:31:24 51°24.668 2°43.733 31.7 0.2 327 23.8
2012-02-17 14:32:24 51°24.672 2°43.731 23.2 0.3 352 23.4
2012-02-17 14:33:24 51°24.673 2°43.726 15.3 0.1 271 22.4
2012-02-17 14:34:24 51°24.672 2°43.722 5.4 0.2 252 20.8
2012-02-17 14:35:24 51°24.669 2°43.717 356.5 0.2 219 20.7
2012-02-17 14:36:24 51°24.665 2°43.713 352.1 0.3 179 23.1
2012-02-17 14:37:24 51°24.66 2°43.709 349.9 0.3 189 24.2
2012-02-17 14:38:24 51°24.656 2°43.705 351.4 0.3 317 24.1
2012-02-17 14:39:24 51°24.669 2°43.7 11 1.2 355 23.1
2012-02-17 14:40:24 51°24.672 2°43.694 26.5 1 213 23
2012-02-17 14:41:27 51°24.654 2°43.675 49.6 0.6 204 21.4
2012-02-17 14:42:27 51°24.658 2°43.691 58.2 1 58 20.7
2012-02-17 14:43:25 51°24.667 2°43.706 43.8 0.7 46 21.3
2012-02-17 14:44:24 51°24.676 2°43.712 30.4 0.4 19 23.2
2012-02-17 14:45:24 51°24.68 2°43.71 12.7 0.2 253 23.7
2012-02-17 14:46:24 51°24.678 2°43.704 358.3 0.2 226 23.8
2012-02-17 14:47:24 51°24.675 2°43.698 350.2 0.3 218 23.5
2012-02-17 14:48:24 51°24.671 2°43.691 344.5 0.5 205 22.7
2012-02-17 14:49:24 51°24.664 2°43.685 346.2 0.5 201 20.1
2012-02-17 14:50:24 51°24.656 2°43.681 352.3 0.5 194 20.5
2012-02-17 14:51:24 51°24.646 2°43.678 358.5 0.6 194 21.8
2012-02-17 14:52:24 51°24.638 2°43.676 6.6 0.3 195 23.2
2012-02-17 14:53:24 51°24.647 2°43.68 28.5 1.4 22 21.8
2012-02-17 14:54:24 51°24.663 2°43.729 89.6 2.7 100 24.3
2012-02-17 14:55:24 51°24.627 2°43.803 136.2 4.6 143 23.4
2012-02-17 14:56:24 51°24.513 2°43.931 138 11.5 143 25.5
2012-02-17 14:57:24 51°24.352 2°44.119 141.7 12.3 145 26.6
2012-02-17 14:58:23 51°24.186 2°44.3 138.8 12.2 141 26.1
2012-02-17 14:59:24 51°24.029 2°44.512 135.1 12.1 139 26.7
2012-02-17 15:00:23 51°23.873 2°44.71 140.7 12.1 142 26.4
2012-02-17 15:01:24 51°23.703 2°44.901 138.3 12.2 142 27.4
2012-02-17 15:02:24 51°23.549 2°45.113 132.7 12.2 140 27
2012-02-17 15:03:23 51°23.403 2°45.333 133.8 12.2 137 27.2
2012-02-17 15:04:24 51°23.243 2°45.548 137.3 12.4 141 26.5
2012-02-17 15:05:23 51°23.086 2°45.754 135 12.1 136 25.4
2012-02-17 15:06:24 51°22.92 2°45.952 147.6 12.4 152 25.6
2012-02-17 15:07:23 51°22.722 2°46.039 169.2 12.7 172 22.2
2012-02-17 15:08:24 51°22.507 2°46.08 170.9 12.7 174 20.3
2012-02-17 15:09:24 51°22.299 2°46.135 167 12.6 171 20.8
2012-02-17 15:10:24 51°22.092 2°46.194 167.8 12.8 170 20.9
2012-02-17 15:11:24 51°21.887 2°46.261 159.8 12.5 161 22.6
2012-02-17 15:12:24 51°21.689 2°46.37 156.4 12.7 160 24.9
2012-02-17 15:13:24 51°21.493 2°46.483 156.5 12.7 160 25.4
2012-02-17 15:14:24 51°21.3 2°46.601 153.5 12.2 155 22.9
2012-02-17 15:15:24 51°21.13 2°46.781 141.4 12.3 142 22.4
2012-02-17 15:16:24 51°20.961 2°46.967 142.3 12.3 146 22.2
2012-02-17 15:17:24 51°20.787 2°47.145 143 12.5 148 19.7
2012-02-17 15:18:24 51°20.61 2°47.314 146.2 12.3 149 16.5
2012-02-17 15:19:24 51°20.442 2°47.498 136.7 12.3 138 18.4
2012-02-17 15:20:24 51°20.292 2°47.724 135 12.5 141 20.7
2012-02-17 15:21:24 51°20.133 2°47.941 135 12.6 141 21.9
2012-02-17 15:22:24 51°19.977 2°48.153 134.1 12.4 137 22
2012-02-17 15:23:23 51°19.818 2°48.356 136.8 12.2 142 21.7
2012-02-17 15:24:24 51°19.655 2°48.566 133.2 12 137 19.7
2012-02-17 15:25:24 51°19.505 2°48.782 132.7 12.3 137 17.4
2012-02-17 15:26:24 51°19.345 2°48.986 137.2 12.2 143 15.4
2012-02-17 15:27:24 51°19.185 2°49.185 131.9 11.7 136 12.3
2012-02-17 15:28:24 51°19.032 2°49.395 136 12.2 143 11.5
2012-02-17 15:29:24 51°18.87 2°49.586 137.6 12 141 10.4
2012-02-17 15:30:23 51°18.719 2°49.789 130 11.8 135 11.8
2012-02-17 15:31:24 51°18.561 2°50.002 134.5 12.3 138 13.6
2012-02-17 15:32:23 51°18.404 2°50.203 132.2 12.2 140 13.9
2012-02-17 15:33:24 51°18.236 2°50.406 136.9 12.3 141 13.7
2012-02-17 15:34:23 51°18.083 2°50.618 133.6 12.2 138 12.6
2012-02-17 15:35:24 51°17.93 2°50.843 130.4 12.2 136 11.8
2012-02-17 15:36:23 51°17.785 2°51.066 132 12.6 136 10.4
2012-02-17 15:37:24 51°17.635 2°51.294 130.7 12.2 136 9.1
2012-02-17 15:38:24 51°17.486 2°51.517 134.2 12.2 141 9.8
2012-02-17 15:39:24 51°17.325 2°51.729 136.1 12.6 143 9.8
2012-02-17 15:40:23 51°17.177 2°51.951 129.3 12.2 135 10.6
2012-02-17 15:41:24 51°17.021 2°52.178 132.6 12.6 138 10.7
2012-02-17 15:42:24 51°16.868 2°52.397 134.4 12.5 140 9.6
2012-02-17 15:43:24 51°16.708 2°52.608 134.4 12.1 139 9.8
2012-02-17 15:44:24 51°16.557 2°52.837 129.3 12.8 135 11.5
2012-02-17 15:45:24 51°16.409 2°53.068 134.2 12.6 138 11.8
2012-02-17 15:46:24 51°16.254 2°53.283 131.6 12.2 135 11.6
2012-02-17 15:47:24 51°16.109 2°53.508 134.2 12.3 140 11.5
2012-02-17 15:48:24 51°15.944 2°53.698 143.2 12.4 149 10.8
2012-02-17 15:49:24 51°15.765 2°53.863 144.3 12.7 150 10.4
2012-02-17 15:50:24 51°15.595 2°54.044 136.8 12.2 143 9.9
2012-02-17 15:51:23 51°15.418 2°54.194 149.9 12.1 157 9.2
2012-02-17 15:52:24 51°15.223 2°54.321 148.4 12.5 151 9.2
2012-02-17 15:53:23 51°15.042 2°54.465 154 12.4 158 10.8
2012-02-17 15:54:27 51°14.858 2°54.645 139.9 12 143 -999
2012-02-17 15:55:26 51°14.692 2°54.817 144.8 12.1 151 10.5
2012-02-17 15:56:25 51°14.526 2°54.991 142 12.2 145 -999
2012-02-17 15:57:25 51°14.361 2°55.177 147 12.2 148 9.8
2012-02-17 15:58:27 51°14.199 2°55.348 147.6 10.3 148 -999
2012-02-17 15:59:27 51°14.085 2°55.444 156.1 6.7 156 -999
2012-02-17 16:00:28 51°13.989 2°55.513 156.8 6.1 157 -999
2012-02-17 16:01:27 51°13.899 2°55.575 157.5 6 157 -999
2012-02-17 16:02:28 51°13.817 2°55.642 151.1 5 150 -999
2012-02-17 16:03:27 51°13.756 2°55.717 138.2 4.7 139 -999
2012-02-17 16:04:28 51°13.711 2°55.804 126.8 3.9 125 -999
2012-02-17 16:05:27 51°13.679 2°55.874 128.9 2.9 128 -999
2012-02-17 16:06:27 51°13.656 2°55.927 121.3 2.2 118 -999
2012-02-17 16:07:27 51°13.644 2°55.977 106.5 1.8 102 -999
2012-02-17 16:08:27 51°13.642 2°56.004 107.8 0.4 95 -999
2012-02-17 16:09:28 51°13.639 2°56.014 123.6 0.4 121 7.6
2012-02-17 16:10:27 51°13.637 2°56.019 125.3 0.1 108 -999
2012-02-17 16:11:28 51°13.637 2°56.019 126.1 -999 228 -999
2012-02-17 16:12:27 51°13.636 2°56.018 127.1 0.1 151 -999
2012-02-17 16:13:28 51°13.636 2°56.019 126.4 0.1 165 -999